createdAt,value
2019-03-01T00:02:03.424Z,49.05
2019-03-01T00:04:37.661Z,46.85
2019-03-01T00:07:33.604Z,46.80
2019-03-01T00:10:22.914Z,51.98
2019-03-01T00:13:05.358Z,52.03
2019-03-01T00:15:43.862Z,59.05
2019-03-01T00:18:17.093Z,55.12
2019-03-01T00:21:08.155Z,55.23
2019-03-01T00:23:41.488Z,54.08
2019-03-01T00:26:17.093Z,53.63
2019-03-01T00:29:05.680Z,57.48
2019-03-01T00:31:41.472Z,56.37
2019-03-01T00:34:38.955Z,54.35
2019-03-01T00:37:19.555Z,47.15
2019-03-01T00:40:01.946Z,55.67
2019-03-01T00:42:44.844Z,41.70
2019-03-01T00:45:15.072Z,41.73
2019-03-01T00:47:44.777Z,48.68
2019-03-01T00:50:14.380Z,42.58
2019-03-01T00:52:44.600Z,47.95
2019-03-01T00:55:14.306Z,39.98
2019-03-01T00:57:44.122Z,41.35
2019-03-01T01:00:20.692Z,45.70
2019-03-01T01:02:50.384Z,60.10
2019-03-01T01:05:20.516Z,62.48
2019-03-01T01:07:50.334Z,64.47
2019-03-01T01:10:38.064Z,55.78
2019-03-01T01:13:08.275Z,54.77
2019-03-01T01:15:37.981Z,40.40
2019-03-01T01:18:07.628Z,52.30
2019-03-01T01:20:37.712Z,35.17
2019-03-01T01:23:07.518Z,34.05
2019-03-01T01:25:37.226Z,35.90
2019-03-01T01:28:07.343Z,39.63
2019-03-01T01:30:37.051Z,36.08
2019-03-01T01:33:06.763Z,27.95
2019-03-01T01:35:37.044Z,27.62
2019-03-01T01:38:06.795Z,27.55
2019-03-01T01:40:36.610Z,26.55
2019-03-01T01:43:06.721Z,28.27
2019-03-01T01:45:36.434Z,22.32
2019-03-01T01:48:06.239Z,24.67
2019-03-01T01:50:36.360Z,23.42
2019-03-01T01:53:06.070Z,24.05
2019-03-01T01:55:37.414Z,29.87
2019-03-01T01:58:07.069Z,30.32
2019-03-01T02:00:36.613Z,28.55
2019-03-01T02:03:06.951Z,27.60
2019-03-01T02:05:36.657Z,30.55
2019-03-01T02:08:06.549Z,25.55
2019-03-01T02:10:36.693Z,24.60
2019-03-01T02:13:06.400Z,24.20
2019-03-01T02:15:36.052Z,27.77
2019-03-01T02:18:06.226Z,26.60
2019-03-01T02:20:35.920Z,27.37
2019-03-01T02:23:05.538Z,25.95
2019-03-01T02:25:36.686Z,28.07
2019-03-01T02:28:06.387Z,28.85
2019-03-01T02:30:41.976Z,31.20
2019-03-01T02:33:12.154Z,30.80
2019-03-01T02:35:41.814Z,33.28
2019-03-01T02:38:11.575Z,38.95
2019-03-01T02:40:41.788Z,43.83
2019-03-01T02:43:11.504Z,60.48
2019-03-01T02:45:41.210Z,79.55
2019-03-01T02:48:11.435Z,101.67
2019-03-01T02:50:42.389Z,67.32
2019-03-01T02:53:12.528Z,46.42
2019-03-01T02:55:42.298Z,33.20
2019-03-01T02:58:12.008Z,31.65
2019-03-01T03:00:42.226Z,31.20
2019-03-01T03:03:11.901Z,28.57
2019-03-01T03:05:55.670Z,30.70
2019-03-01T03:08:25.992Z,33.50
2019-03-01T03:10:55.910Z,29.00
2019-03-01T03:13:25.613Z,35.92
2019-03-01T03:15:55.688Z,40.78
2019-03-01T03:18:25.445Z,40.85
2019-03-01T03:20:55.257Z,50.12
2019-03-01T03:23:25.400Z,49.40
2019-03-01T03:25:55.017Z,48.23
2019-03-01T03:28:24.787Z,38.48
2019-03-01T03:30:54.906Z,47.88
2019-03-01T03:33:24.536Z,35.33
2019-03-01T03:35:54.330Z,30.50
2019-03-01T03:38:24.550Z,31.17
2019-03-01T03:40:54.252Z,32.48
2019-03-01T03:43:23.958Z,34.63
2019-03-01T03:45:54.178Z,28.55
2019-03-01T03:48:23.888Z,30.65
2019-03-01T03:50:53.597Z,24.50
2019-03-01T03:53:23.764Z,31.17
2019-03-01T03:55:53.446Z,35.70
2019-03-01T03:58:23.134Z,38.28
2019-03-01T04:00:53.292Z,31.95
2019-03-01T04:03:22.942Z,37.30
2019-03-01T04:05:52.672Z,39.55
2019-03-01T04:08:24.011Z,45.88
2019-03-01T04:10:53.827Z,51.45
2019-03-01T04:13:23.637Z,57.67
2019-03-01T04:15:53.752Z,56.45
2019-03-01T04:18:23.407Z,69.07
2019-03-01T04:20:53.074Z,81.57
2019-03-01T04:23:23.303Z,76.62
2019-03-01T04:25:52.999Z,68.07
2019-03-01T04:28:22.706Z,64.53
2019-03-01T04:30:53.029Z,63.38
2019-03-01T04:33:22.676Z,50.73
2019-03-01T04:35:52.440Z,50.70
2019-03-01T04:38:23.520Z,42.70
2019-03-01T04:40:53.201Z,48.13
2019-03-01T04:43:22.889Z,53.33
2019-03-01T04:45:53.217Z,47.23
2019-03-01T04:48:22.868Z,48.13
2019-03-01T04:50:54.996Z,51.15
2019-03-01T04:53:25.109Z,43.73
2019-03-01T04:55:54.814Z,45.85
2019-03-01T04:58:24.532Z,52.40
2019-03-01T05:00:56.701Z,50.05
2019-03-01T05:03:26.351Z,47.93
2019-03-01T05:05:56.036Z,57.20
2019-03-01T05:08:26.129Z,61.20
2019-03-01T05:10:55.934Z,56.28
2019-03-01T05:13:25.582Z,60.03
2019-03-01T05:15:55.761Z,61.25
2019-03-01T05:18:25.470Z,49.93
2019-03-01T05:20:55.179Z,46.15
2019-03-01T05:23:25.302Z,40.33
2019-03-01T05:25:55.008Z,48.02
2019-03-01T05:28:24.652Z,49.95
2019-03-01T05:30:54.973Z,61.08
2019-03-01T05:33:24.914Z,44.80
2019-03-01T05:35:54.763Z,35.10
2019-03-01T05:38:24.882Z,27.40
2019-03-01T05:40:54.585Z,28.05
2019-03-01T05:43:24.295Z,20.00
2019-03-01T05:45:54.522Z,20.23
2019-03-01T05:48:24.224Z,21.15
2019-03-01T05:50:53.830Z,23.87
2019-03-01T05:56:22.847Z,20.02
2019-03-01T05:59:07.117Z,17.77
2019-03-01T06:04:11.324Z,23.57
2019-03-01T06:07:15.944Z,19.42
2019-03-01T06:10:13.222Z,18.00
2019-03-01T06:13:00.917Z,21.10
2019-03-01T06:15:46.409Z,21.70
2019-03-01T06:18:38.857Z,22.13
2019-03-01T06:21:27.366Z,17.10
2019-03-01T06:24:03.167Z,17.25
2019-03-01T06:26:42.501Z,14.98
2019-03-01T06:29:17.963Z,18.40
2019-03-01T06:32:09.766Z,19.42
2019-03-01T06:35:03.838Z,17.27
2019-03-01T06:37:49.106Z,20.30
2019-03-01T06:40:38.609Z,18.15
2019-03-01T06:43:31.736Z,19.42
2019-03-01T06:46:13.390Z,23.12
2019-03-01T06:48:47.846Z,21.97
2019-03-01T06:51:28.341Z,28.00
2019-03-01T06:53:50.964Z,29.07
2019-03-01T06:56:20.765Z,27.37
2019-03-01T06:58:50.412Z,24.65
2019-03-01T07:01:21.300Z,24.65
2019-03-01T07:03:52.239Z,21.20
2019-03-01T07:06:23.999Z,22.48
2019-03-01T07:08:53.652Z,20.35
2019-03-01T07:11:23.310Z,21.17
2019-03-01T07:13:53.427Z,16.75
2019-03-01T07:16:23.108Z,18.92
2019-03-01T07:18:52.842Z,17.87
2019-03-01T07:21:22.943Z,15.53
2019-03-01T07:23:52.587Z,14.87
2019-03-01T07:26:22.282Z,22.60
2019-03-01T07:28:52.399Z,20.75
2019-03-01T07:31:22.307Z,17.27
2019-03-01T07:33:53.245Z,19.95
2019-03-01T07:36:23.322Z,22.95
2019-03-01T07:38:53.072Z,32.98
2019-03-01T07:41:22.784Z,36.23
2019-03-01T07:43:52.900Z,20.97
2019-03-01T07:46:22.791Z,29.35
2019-03-01T07:48:52.497Z,15.83
2019-03-01T07:51:22.567Z,12.98
2019-03-01T07:53:52.349Z,10.03
2019-03-01T07:56:22.057Z,13.88
2019-03-01T07:58:52.173Z,8.38
2019-03-01T08:01:21.884Z,11.12
2019-03-01T08:03:53.205Z,7.90
2019-03-01T08:06:24.416Z,5.92
2019-03-01T08:08:54.081Z,7.08
2019-03-01T08:11:23.794Z,12.73
2019-03-01T08:13:54.250Z,8.23
2019-03-01T08:16:25.240Z,14.10
2019-03-01T08:18:55.578Z,10.53
2019-03-01T08:21:25.288Z,10.28
2019-03-01T08:23:55.001Z,9.75
2019-03-01T08:26:25.217Z,8.98
2019-03-01T08:28:58.551Z,9.43
2019-03-01T08:31:26.378Z,11.88
2019-03-01T08:33:56.594Z,14.00
2019-03-01T08:36:26.164Z,14.98
2019-03-01T08:38:55.905Z,11.57
2019-03-01T08:41:26.293Z,10.25
2019-03-01T08:43:56.140Z,10.20
2019-03-01T08:46:26.847Z,12.37
2019-03-01T08:48:57.400Z,12.60
2019-03-01T08:51:27.630Z,10.98
2019-03-01T08:53:58.889Z,13.72
2019-03-01T08:56:28.574Z,17.32
2019-03-01T08:58:58.282Z,16.07
2019-03-01T09:01:28.609Z,12.80
2019-03-01T09:04:07.330Z,13.30
2019-03-01T09:06:37.442Z,10.82
2019-03-01T09:09:08.673Z,63.38
2019-03-01T09:11:41.691Z,8.75
2019-03-01T09:14:11.487Z,11.33
2019-03-01T09:16:41.612Z,10.53
2019-03-01T09:19:11.707Z,10.75
2019-03-01T09:21:44.739Z,10.55
2019-03-01T09:24:13.292Z,9.65
2019-03-01T09:26:42.996Z,9.85
2019-03-01T09:29:18.324Z,9.20
2019-03-01T09:31:45.695Z,8.80
2019-03-01T09:34:15.400Z,7.58
2019-03-01T09:36:46.689Z,6.42
2019-03-01T09:39:17.887Z,8.50
2019-03-01T09:41:48.317Z,4.83
2019-03-01T09:44:19.456Z,6.85
2019-03-01T09:46:49.171Z,8.03
2019-03-01T09:49:21.411Z,7.87
2019-03-01T09:51:50.935Z,7.15
2019-03-01T09:54:20.646Z,14.85
2019-03-01T09:56:50.356Z,14.30
2019-03-01T09:59:20.575Z,5.00
2019-03-01T10:01:50.230Z,7.67
2019-03-01T10:04:19.996Z,4.97
2019-03-01T10:06:50.110Z,6.37
2019-03-01T10:09:19.757Z,9.15
2019-03-01T10:11:49.431Z,7.78
2019-03-01T10:14:20.402Z,8.85
2019-03-01T10:16:52.976Z,8.45
2019-03-01T10:19:23.261Z,10.23
2019-03-01T10:21:54.003Z,8.93
2019-03-01T10:24:24.210Z,11.33
2019-03-01T10:26:53.922Z,14.50
2019-03-01T10:29:23.640Z,8.80
2019-03-01T10:31:53.749Z,9.18
2019-03-01T10:34:23.459Z,7.83
2019-03-01T10:36:53.272Z,6.92
2019-03-01T10:39:23.392Z,15.70
2019-03-01T10:41:53.095Z,15.25
2019-03-01T10:44:22.913Z,16.73
2019-03-01T10:46:53.025Z,20.60
2019-03-01T10:49:22.734Z,18.15
2019-03-01T10:51:52.551Z,18.02
2019-03-01T10:54:22.611Z,17.90
2019-03-01T10:56:52.368Z,12.13
2019-03-01T10:59:22.079Z,11.20
2019-03-01T11:01:52.296Z,8.73
2019-03-01T11:04:22.011Z,13.43
2019-03-01T11:06:51.611Z,8.73
2019-03-01T11:09:21.831Z,9.58
2019-03-01T11:11:51.542Z,17.77
2019-03-01T11:14:21.187Z,13.03
2019-03-01T11:16:51.377Z,11.70
2019-03-01T11:19:20.971Z,14.07
2019-03-01T11:21:50.627Z,12.70
2019-03-01T11:24:20.802Z,8.78
2019-03-01T11:26:50.449Z,12.82
2019-03-01T11:29:20.220Z,9.78
2019-03-01T11:31:50.342Z,8.30
2019-03-01T11:34:20.044Z,7.80
2019-03-01T11:36:49.728Z,13.30
2019-03-01T11:39:20.489Z,6.47
2019-03-01T11:41:50.128Z,6.87
2019-03-01T11:44:19.802Z,6.00
2019-03-01T11:46:50.949Z,7.65
2019-03-01T11:49:20.653Z,14.43
2019-03-01T11:51:50.869Z,5.50
2019-03-01T11:54:20.584Z,6.40
2019-03-01T11:56:50.493Z,5.08
2019-03-01T11:59:20.621Z,6.10
2019-03-01T12:01:50.264Z,9.60
2019-03-01T12:04:19.908Z,12.78
2019-03-01T12:06:50.142Z,6.15
2019-03-01T12:09:21.362Z,6.92
2019-03-01T12:11:51.520Z,14.13
2019-03-01T12:14:22.321Z,12.23
2019-03-01T12:16:53.695Z,9.57
2019-03-01T12:19:23.344Z,6.80
2019-03-01T12:21:53.212Z,8.68
2019-03-01T12:24:23.324Z,6.50
2019-03-01T12:26:53.141Z,7.70
2019-03-01T12:29:22.844Z,6.92
2019-03-01T12:31:52.982Z,3.75
2019-03-01T12:34:22.554Z,6.85
2019-03-01T12:36:52.276Z,9.03
2019-03-01T12:39:22.401Z,8.93
2019-03-01T12:41:52.103Z,3.42
2019-03-01T12:44:21.816Z,8.73
2019-03-01T12:46:51.935Z,6.33
2019-03-01T12:49:21.644Z,17.02
2019-03-01T12:51:51.356Z,16.87
2019-03-01T12:54:21.567Z,17.30
2019-03-01T12:56:51.216Z,30.85
2019-03-01T12:59:20.966Z,22.58
2019-03-01T13:01:52.332Z,35.20
2019-03-01T13:04:21.982Z,24.70
2019-03-01T13:06:51.754Z,11.03
2019-03-01T13:09:23.434Z,9.93
2019-03-01T13:11:53.525Z,12.18
2019-03-01T13:14:23.635Z,10.90
2019-03-01T13:16:53.352Z,18.60
2019-03-01T13:19:23.442Z,25.88
2019-03-01T13:21:55.071Z,13.80
2019-03-01T13:24:24.730Z,14.95
2019-03-01T13:26:54.386Z,19.00
2019-03-01T13:29:24.656Z,20.82
2019-03-01T13:31:55.900Z,21.65
2019-03-01T13:34:26.792Z,23.00
2019-03-01T13:36:56.548Z,21.80
2019-03-01T13:39:26.256Z,19.40
2019-03-01T13:41:56.473Z,15.48
2019-03-01T13:44:26.109Z,14.03
2019-03-01T13:46:55.789Z,14.78
2019-03-01T13:49:26.700Z,12.25
2019-03-01T13:51:57.472Z,10.98
2019-03-01T13:54:29.209Z,20.15
2019-03-01T13:57:00.169Z,13.65
2019-03-01T13:59:37.590Z,16.07
2019-03-01T14:02:07.560Z,13.48
2019-03-01T14:04:40.339Z,17.48
2019-03-01T14:07:09.430Z,9.68
2019-03-01T14:09:39.654Z,17.00
2019-03-01T14:12:09.307Z,24.45
2019-03-01T14:14:39.073Z,18.75
2019-03-01T14:17:09.289Z,23.35
2019-03-01T14:19:41.971Z,13.85
2019-03-01T14:22:13.833Z,13.03
2019-03-01T14:24:42.207Z,10.18
2019-03-01T14:27:12.429Z,6.35
2019-03-01T14:29:42.239Z,13.83
2019-03-01T14:32:14.852Z,9.68
2019-03-01T14:34:47.673Z,6.15
2019-03-01T14:37:18.591Z,9.20
2019-03-01T14:39:47.111Z,8.55
2019-03-01T14:42:16.744Z,9.38
2019-03-01T14:44:46.384Z,12.10
2019-03-01T14:47:16.645Z,11.53
2019-03-01T14:49:46.355Z,13.15
2019-03-01T14:52:18.279Z,8.85
2019-03-01T14:54:47.880Z,11.35
2019-03-01T14:57:20.401Z,11.63
2019-03-01T14:59:56.609Z,18.07
2019-03-01T15:02:41.214Z,12.37
2019-03-01T15:05:17.871Z,12.18
2019-03-01T15:07:52.385Z,9.70
2019-03-01T15:10:23.757Z,8.78
2019-03-01T15:12:53.931Z,10.98
2019-03-01T15:15:26.452Z,7.72
2019-03-01T15:17:57.082Z,11.63
2019-03-01T15:20:28.021Z,10.82
2019-03-01T15:22:57.934Z,9.58
2019-03-01T15:25:27.565Z,12.70
2019-03-01T15:27:57.762Z,14.28
2019-03-01T15:30:27.579Z,14.75
2019-03-01T15:32:57.274Z,16.62
2019-03-01T15:35:28.791Z,26.17
2019-03-01T15:37:59.560Z,14.30
2019-03-01T15:40:31.487Z,11.88
2019-03-01T15:43:02.122Z,19.20
2019-03-01T15:45:32.263Z,12.82
2019-03-01T15:48:03.106Z,18.30
2019-03-01T15:50:33.838Z,19.85
2019-03-01T15:53:03.545Z,29.72
2019-03-01T15:55:33.257Z,29.87
2019-03-01T15:58:03.477Z,25.80
2019-03-01T16:00:33.303Z,25.17
2019-03-01T16:03:02.993Z,22.87
2019-03-01T16:05:34.238Z,20.92
2019-03-01T16:08:08.353Z,14.00
2019-03-01T16:10:38.592Z,16.87
2019-03-01T16:13:11.903Z,8.83
2019-03-01T16:15:40.141Z,13.68
2019-03-01T16:18:09.846Z,8.68
2019-03-01T16:20:39.557Z,7.97
2019-03-01T16:23:09.849Z,13.70
2019-03-01T16:25:39.593Z,14.70
2019-03-01T16:28:09.302Z,8.20
2019-03-01T16:30:39.512Z,12.75
2019-03-01T16:33:09.234Z,24.35
2019-03-01T16:35:38.934Z,18.48
2019-03-01T16:38:09.157Z,18.20
2019-03-01T16:40:38.863Z,17.30
2019-03-01T16:43:08.567Z,14.63
2019-03-01T16:45:38.733Z,13.08
2019-03-01T16:48:08.515Z,10.82
2019-03-01T16:50:40.649Z,9.65
2019-03-01T16:53:10.166Z,8.95
2019-03-01T16:55:40.153Z,9.48
2019-03-01T16:58:11.451Z,8.68
2019-03-01T17:00:41.520Z,8.08
2019-03-01T17:03:17.871Z,10.23
2019-03-01T17:05:47.827Z,7.75
2019-03-01T17:08:17.636Z,9.50
2019-03-01T17:10:47.327Z,9.55
2019-03-01T17:13:17.516Z,11.63
2019-03-01T17:18:44.629Z,23.15
2019-03-01T17:21:16.627Z,25.37
2019-03-01T17:23:46.607Z,18.30
2019-03-01T17:26:16.833Z,22.42
2019-03-01T17:28:46.536Z,22.45
2019-03-01T17:31:17.547Z,26.75
2019-03-01T17:33:51.267Z,19.02
2019-03-01T17:36:28.666Z,12.93
2019-03-01T17:39:00.665Z,10.88
2019-03-01T17:41:31.988Z,9.73
2019-03-01T17:44:04.876Z,8.93
2019-03-01T17:46:34.712Z,12.00
2019-03-01T17:49:08.180Z,18.90
2019-03-01T17:51:37.879Z,18.55
2019-03-01T17:54:15.000Z,21.77
2019-03-01T17:56:44.788Z,24.02
2019-03-01T17:59:15.711Z,21.23
2019-03-01T18:01:45.518Z,17.55
2019-03-01T18:04:16.249Z,20.30
2019-03-01T18:06:48.711Z,20.60
2019-03-01T18:09:17.913Z,21.12
2019-03-01T18:11:48.142Z,7.90
2019-03-01T18:14:17.846Z,8.63
2019-03-01T18:16:48.581Z,8.83
2019-03-01T18:19:18.698Z,9.65
2019-03-01T18:21:50.075Z,10.63
2019-03-01T18:24:30.191Z,13.48
2019-03-01T18:27:07.565Z,18.23
2019-03-01T18:29:42.360Z,12.43
2019-03-01T18:32:12.274Z,12.25
2019-03-01T18:34:47.166Z,9.30
2019-03-01T18:37:19.695Z,9.65
2019-03-01T18:40:06.407Z,11.70
2019-03-01T18:42:43.284Z,15.38
2019-03-01T18:45:24.407Z,10.35
2019-03-01T18:47:55.605Z,11.75
2019-03-01T18:50:32.190Z,10.45
2019-03-01T18:53:03.968Z,12.50
2019-03-01T18:55:37.222Z,6.43
2019-03-01T18:58:10.448Z,6.08
2019-03-01T19:00:53.079Z,6.97
2019-03-01T19:03:36.620Z,8.23
2019-03-01T19:06:24.948Z,9.48
2019-03-01T19:09:06.674Z,23.15
2019-03-01T19:11:42.059Z,19.50
2019-03-01T19:14:14.222Z,19.80
2019-03-01T19:16:50.051Z,22.55
2019-03-01T19:19:29.797Z,20.60
2019-03-01T19:21:59.844Z,17.82
2019-03-01T19:24:42.695Z,25.97
2019-03-01T19:27:09.256Z,14.55
2019-03-01T19:29:54.216Z,12.15
2019-03-01T19:32:27.616Z,7.03
2019-03-01T19:35:04.675Z,8.75
2019-03-01T19:37:38.943Z,7.95
2019-03-01T19:40:13.898Z,7.80
2019-03-01T19:42:45.634Z,10.15
2019-03-01T19:45:21.651Z,8.98
2019-03-01T19:48:01.699Z,9.03
2019-03-01T19:50:31.746Z,10.32
2019-03-01T19:53:05.156Z,15.43
2019-03-01T19:55:39.470Z,12.18
2019-03-01T20:00:42.565Z,15.38
2019-03-01T20:03:11.984Z,11.88
2019-03-01T20:05:46.506Z,9.33
2019-03-01T20:08:29.790Z,12.35
2019-03-01T20:11:07.936Z,12.05
2019-03-01T20:13:41.941Z,11.73
2019-03-01T20:16:35.876Z,11.50
2019-03-01T20:19:20.845Z,13.78
2019-03-01T20:21:54.048Z,11.50
2019-03-01T20:24:23.983Z,8.30
2019-03-01T20:26:56.715Z,9.73
2019-03-01T20:32:07.341Z,6.97
2019-03-01T20:34:38.016Z,8.33
2019-03-01T20:37:15.292Z,8.08
2019-03-01T20:39:47.502Z,10.68
2019-03-01T20:42:33.859Z,11.97
2019-03-01T20:45:29.994Z,8.58
2019-03-01T20:48:06.512Z,7.67
2019-03-01T20:50:50.977Z,6.00
2019-03-01T20:53:25.446Z,7.83
2019-03-01T20:55:56.749Z,7.90
2019-03-01T20:58:44.894Z,9.70
2019-03-01T21:01:37.202Z,8.30
2019-03-01T21:04:19.294Z,12.33
2019-03-01T21:07:03.108Z,7.72
2019-03-01T21:09:37.692Z,8.85
2019-03-01T21:12:16.928Z,12.30
2019-03-01T21:17:58.678Z,9.83
2019-03-01T21:20:34.417Z,13.85
2019-03-01T21:23:11.759Z,10.03
2019-03-01T21:25:47.510Z,11.53
2019-03-01T21:28:26.494Z,18.60
2019-03-01T21:31:02.422Z,15.53
2019-03-01T21:33:39.688Z,13.53
2019-03-01T21:36:15.337Z,13.80
2019-03-01T21:38:51.637Z,18.85
2019-03-01T21:41:21.428Z,16.95
2019-03-01T21:43:51.636Z,15.35
2019-03-01T21:46:21.328Z,21.33
2019-03-01T21:48:51.030Z,21.40
2019-03-01T21:51:21.048Z,15.23
2019-03-01T21:53:50.710Z,16.25
2019-03-01T21:56:22.924Z,15.75
2019-03-01T21:58:58.968Z,19.75
2019-03-01T22:01:56.527Z,20.00
2019-03-01T22:04:28.804Z,19.67
2019-03-01T22:07:01.959Z,21.50
2019-03-01T22:09:31.428Z,22.67
2019-03-01T22:12:01.503Z,35.28
2019-03-01T22:14:32.043Z,30.77
2019-03-01T22:17:02.915Z,33.25
2019-03-01T22:19:33.659Z,29.10
2019-03-01T22:22:04.092Z,35.90
2019-03-01T22:24:34.256Z,39.88
2019-03-01T22:27:05.784Z,41.18
2019-03-01T22:29:36.342Z,39.83
2019-03-01T22:32:07.401Z,42.10
2019-03-01T22:34:38.014Z,49.73
2019-03-01T22:37:07.950Z,48.90
2019-03-01T22:39:37.631Z,43.73
2019-03-01T22:42:07.879Z,53.40
2019-03-01T22:44:37.657Z,63.87
2019-03-01T22:47:07.398Z,48.40
2019-03-01T22:49:37.846Z,47.90
2019-03-01T22:52:07.588Z,46.80
2019-03-01T22:54:37.534Z,44.55
2019-03-01T22:57:08.429Z,34.55
2019-03-01T22:59:39.309Z,38.55
2019-03-01T23:02:11.885Z,35.95
2019-03-01T23:04:46.536Z,38.92
2019-03-01T23:07:17.033Z,26.82
2019-03-01T23:09:47.583Z,19.20
2019-03-01T23:12:19.857Z,17.87
2019-03-01T23:14:49.815Z,20.82
2019-03-01T23:17:19.756Z,17.73
2019-03-01T23:19:51.661Z,19.40
2019-03-01T23:22:21.931Z,23.95
2019-03-01T23:24:53.994Z,21.73
2019-03-01T23:27:23.924Z,22.40
2019-03-01T23:29:54.436Z,15.90
2019-03-01T23:32:24.809Z,16.42
2019-03-01T23:34:54.464Z,17.32
2019-03-01T23:37:24.582Z,15.68
2019-03-01T23:39:57.143Z,18.52
2019-03-01T23:42:26.195Z,18.02
2019-03-01T23:44:55.858Z,14.90
2019-03-01T23:47:25.570Z,13.30
2019-03-01T23:49:59.136Z,9.38
2019-03-01T23:52:27.034Z,16.32
2019-03-01T23:54:57.149Z,10.50
2019-03-01T23:57:26.791Z,9.73
2019-03-01T23:59:58.720Z,8.90
